Time;durP1;ratioP1;P1;durP2;ratioP2;P2;SDS_P1;SDS_P2;PMS_P1;PMS_P2;Temp;Humidity;BMP_temperature;BMP_pressure;BME280_temperature;BME280_humidity;BME280_pressure;Samples;Min_cycle;Max_cycle;Signal;HPM_P1;HPM_P2
2023/12/03 00:00:39;;;;;;;52.45;20.65;;;;;;;;;;5027732;28;20660;-68
2023/12/03 00:03:06;;;;;;;55.15;23.27;;;;;;;;;;5027109;28;20118;-68
2023/12/03 00:05:33;;;;;;;52.65;20.58;;;;;;;;;;5023790;28;20046;-68
2023/12/03 00:07:59;;;;;;;54.80;19.75;;;;;;;;;;5027387;28;20091;-68
2023/12/03 00:10:26;;;;;;;48.83;19.50;;;;;;;;;;5026820;28;20037;-68
2023/12/03 00:12:52;;;;;;;48.33;19.02;;;;;;;;;;5027809;28;20494;-67
2023/12/03 00:15:19;;;;;;;57.63;20.55;;;;;;;;;;5027469;28;20128;-68
2023/12/03 00:17:45;;;;;;;50.60;20.77;;;;;;;;;;5027369;28;20516;-67
2023/12/03 00:20:12;;;;;;;50.47;19.30;;;;;;;;;;5026859;28;20488;-67
2023/12/03 00:22:38;;;;;;;50.80;20.63;;;;;;;;;;5026937;28;20045;-67
2023/12/03 00:25:06;;;;;;;56.72;19.05;;;;;;;;;;5025973;28;20061;-68
2023/12/03 00:27:32;;;;;;;53.42;20.35;;;;;;;;;;5026621;28;20045;-68
2023/12/03 00:29:59;;;;;;;47.88;19.13;;;;;;;;;;5027212;28;20124;-67
2023/12/03 00:32:26;;;;;;;50.17;18.48;;;;;;;;;;5027069;28;20045;-68
2023/12/03 00:34:52;;;;;;;47.45;18.20;;;;;;;;;;5027336;28;20119;-67
2023/12/03 00:37:19;;;;;;;48.13;19.13;;;;;;;;;;5026246;28;20053;-68
2023/12/03 00:39:45;;;;;;;54.70;18.70;;;;;;;;;;5027233;28;20045;-67
2023/12/03 00:42:12;;;;;;;45.90;17.92;;;;;;;;;;5026619;28;20059;-67
2023/12/03 00:44:38;;;;;;;46.90;17.48;;;;;;;;;;5026374;28;20049;-67
2023/12/03 00:47:05;;;;;;;42.20;16.25;;;;;;;;;;5027242;28;20104;-67
2023/12/03 00:49:31;;;;;;;53.83;20.98;;;;;;;;;;5026826;28;20433;-68
2023/12/03 00:51:58;;;;;;;37.13;16.20;;;;;;;;;;5026861;28;20049;-68
2023/12/03 00:54:24;;;;;;;44.17;17.15;;;;;;;;;;5026390;28;20052;-67
2023/12/03 00:56:51;;;;;;;41.55;15.52;;;;;;;;;;5021922;28;20054;-67
2023/12/03 00:59:17;;;;;;;42.15;16.95;;;;;;;;;;5026389;28;20147;-68
2023/12/03 01:01:44;;;;;;;33.90;14.32;;;;;;;;;;5026721;28;20046;-68
2023/12/03 01:04:10;;;;;;;46.90;14.52;;;;;;;;;;5026287;28;20371;-68
2023/12/03 01:06:37;;;;;;;34.88;15.32;;;;;;;;;;5025654;28;20128;-68
2023/12/03 01:09:04;;;;;;;36.45;16.70;;;;;;;;;;5025128;28;20048;-68
2023/12/03 01:11:30;;;;;;;35.40;16.30;;;;;;;;;;5025936;28;20042;-67
2023/12/03 01:14:02;;;;;;;35.47;13.60;;;;;;;;;;5026852;28;20046;-67
2023/12/03 01:16:29;;;;;;;31.40;13.75;;;;;;;;;;5026430;28;20045;-67
2023/12/03 01:18:56;;;;;;;32.83;13.98;;;;;;;;;;5027330;28;20056;-67
2023/12/03 01:21:22;;;;;;;33.60;13.80;;;;;;;;;;5026257;28;20052;-68
2023/12/03 01:23:49;;;;;;;31.00;13.63;;;;;;;;;;5030441;28;20124;-67
2023/12/03 01:26:15;;;;;;;32.72;14.73;;;;;;;;;;5028392;28;20038;-68
2023/12/03 01:28:41;;;;;;;31.67;13.75;;;;;;;;;;5023567;28;20625;-68
2023/12/03 01:31:08;;;;;;;32.97;15.25;;;;;;;;;;5029922;28;20146;-68
2023/12/03 01:33:34;;;;;;;35.17;13.55;;;;;;;;;;5029189;28;20128;-69
2023/12/03 01:36:01;;;;;;;35.92;15.18;;;;;;;;;;5025645;28;20128;-69
2023/12/03 01:38:27;;;;;;;30.25;13.25;;;;;;;;;;5031996;28;20053;-70
2023/12/03 01:40:54;;;;;;;31.27;14.20;;;;;;;;;;5035354;28;20619;-68
2023/12/03 01:43:20;;;;;;;34.25;14.00;;;;;;;;;;5033344;28;20118;-68
2023/12/03 01:45:47;;;;;;;30.90;12.25;;;;;;;;;;5030299;28;20049;-68
2023/12/03 01:48:14;;;;;;;31.00;14.10;;;;;;;;;;5030553;28;20049;-68
2023/12/03 01:50:41;;;;;;;31.75;14.45;;;;;;;;;;5028329;28;20140;-68
2023/12/03 01:53:07;;;;;;;32.67;14.18;;;;;;;;;;5029928;28;20054;-68
2023/12/03 01:55:34;;;;;;;32.22;14.30;;;;;;;;;;5029982;28;20055;-67
2023/12/03 01:58:01;;;;;;;36.55;15.27;;;;;;;;;;5029692;28;20402;-67
2023/12/03 02:00:27;;;;;;;36.13;14.95;;;;;;;;;;5027952;28;20067;-68
2023/12/03 02:02:54;;;;;;;36.83;14.05;;;;;;;;;;5030731;28;20053;-70
2023/12/03 02:05:20;;;;;;;31.63;12.23;;;;;;;;;;5034733;28;20049;-72
2023/12/03 02:07:47;;;;;;;35.67;13.38;;;;;;;;;;5031003;28;20037;-68
2023/12/03 02:10:14;;;;;;;34.83;13.48;;;;;;;;;;5028470;28;20049;-68
2023/12/03 02:12:40;;;;;;;25.95;12.90;;;;;;;;;;5022965;28;20588;-69
2023/12/03 02:15:07;;;;;;;32.17;13.32;;;;;;;;;;5024685;28;20054;-67
2023/12/03 02:17:35;;;;;;;33.28;13.45;;;;;;;;;;5027098;28;20045;-68
2023/12/03 02:20:03;;;;;;;30.83;13.15;;;;;;;;;;5029719;28;20072;-68
2023/12/03 02:22:30;;;;;;;30.98;12.85;;;;;;;;;;5029197;28;20052;-68
2023/12/03 02:24:56;;;;;;;28.48;12.85;;;;;;;;;;5029235;28;20137;-68
2023/12/03 02:27:23;;;;;;;31.70;12.27;;;;;;;;;;5030134;28;20725;-68
2023/12/03 02:29:49;;;;;;;32.35;13.95;;;;;;;;;;5033945;28;20435;-67
2023/12/03 02:32:15;;;;;;;28.48;12.73;;;;;;;;;;5030844;28;20080;-68
2023/12/03 02:34:42;;;;;;;31.15;13.50;;;;;;;;;;5029779;28;20478;-68
2023/12/03 02:37:08;;;;;;;31.48;13.57;;;;;;;;;;5028791;28;20383;-68
2023/12/03 02:39:35;;;;;;;29.23;12.52;;;;;;;;;;5029599;28;20099;-67
2023/12/03 02:42:01;;;;;;;26.00;12.60;;;;;;;;;;5029640;28;20149;-68
2023/12/03 02:44:28;;;;;;;27.13;13.27;;;;;;;;;;5029207;28;20584;-68
2023/12/03 02:46:54;;;;;;;30.08;12.40;;;;;;;;;;5029345;28;20061;-68
2023/12/03 02:49:21;;;;;;;29.90;11.70;;;;;;;;;;5030060;28;20057;-68
2023/12/03 02:51:47;;;;;;;27.40;12.45;;;;;;;;;;5029789;28;20046;-73
2023/12/03 02:54:14;;;;;;;23.83;11.50;;;;;;;;;;5034174;28;20073;-68
2023/12/03 02:56:42;;;;;;;25.95;12.50;;;;;;;;;;5025740;28;20049;-68
2023/12/03 02:59:09;;;;;;;27.52;12.75;;;;;;;;;;5030300;28;20057;-68
2023/12/03 03:01:35;;;;;;;24.95;12.32;;;;;;;;;;5027639;28;20650;-70
2023/12/03 03:04:01;;;;;;;30.30;12.95;;;;;;;;;;5029492;28;20076;-68
2023/12/03 03:06:28;;;;;;;31.92;13.15;;;;;;;;;;5028275;28;20080;-68
2023/12/03 03:08:55;;;;;;;33.70;14.70;;;;;;;;;;5028115;28;20057;-68
2023/12/03 03:11:21;;;;;;;27.73;13.95;;;;;;;;;;5017433;28;20073;-68
2023/12/03 03:13:48;;;;;;;36.22;13.77;;;;;;;;;;5029454;28;20175;-68
2023/12/03 03:16:16;;;;;;;31.90;14.60;;;;;;;;;;5023093;28;20042;-68
2023/12/03 03:18:42;;;;;;;34.10;14.00;;;;;;;;;;5029357;28;20100;-68
2023/12/03 03:21:09;;;;;;;33.75;15.45;;;;;;;;;;5028902;28;20084;-68
2023/12/03 03:23:37;;;;;;;31.15;12.60;;;;;;;;;;5029702;28;20037;-68
2023/12/03 03:26:03;;;;;;;30.55;12.90;;;;;;;;;;5030088;28;20081;-68
2023/12/03 03:28:30;;;;;;;32.22;14.40;;;;;;;;;;5029620;28;20052;-67
2023/12/03 03:30:58;;;;;;;33.83;14.50;;;;;;;;;;5028381;28;20115;-68
2023/12/03 03:33:25;;;;;;;31.95;13.90;;;;;;;;;;5028210;28;20078;-67
2023/12/03 03:35:51;;;;;;;37.65;15.60;;;;;;;;;;5028057;28;20053;-68
2023/12/03 03:38:17;;;;;;;34.03;15.88;;;;;;;;;;5025481;28;20064;-68
2023/12/03 03:40:44;;;;;;;33.40;15.65;;;;;;;;;;5028292;28;20041;-69
2023/12/03 03:43:10;;;;;;;32.25;14.45;;;;;;;;;;5026600;28;20057;-67
2023/12/03 03:45:37;;;;;;;32.13;14.35;;;;;;;;;;5027409;28;20077;-68
2023/12/03 03:48:03;;;;;;;33.05;15.63;;;;;;;;;;5027481;28;20057;-68
2023/12/03 03:50:30;;;;;;;35.85;15.98;;;;;;;;;;5028144;28;20450;-67
2023/12/03 03:52:56;;;;;;;36.13;16.15;;;;;;;;;;5026028;28;20053;-68
2023/12/03 03:55:23;;;;;;;35.42;15.25;;;;;;;;;;5022627;28;20780;-68
2023/12/03 03:57:49;;;;;;;37.13;15.48;;;;;;;;;;5026207;28;20677;-67
2023/12/03 04:00:16;;;;;;;36.05;15.57;;;;;;;;;;5027808;28;20053;-68
2023/12/03 04:02:42;;;;;;;33.35;13.93;;;;;;;;;;5028209;28;20060;-71
2023/12/03 04:05:09;;;;;;;36.33;16.05;;;;;;;;;;5021192;28;20528;-68
2023/12/03 04:07:35;;;;;;;34.20;15.93;;;;;;;;;;5027652;28;20111;-68
2023/12/03 04:10:02;;;;;;;37.72;16.85;;;;;;;;;;5024403;28;20136;-68
2023/12/03 04:12:28;;;;;;;36.22;14.55;;;;;;;;;;5026623;28;20052;-67
2023/12/03 04:14:55;;;;;;;34.88;15.23;;;;;;;;;;5027032;28;20049;-67
2023/12/03 04:17:21;;;;;;;36.05;16.20;;;;;;;;;;5027860;28;20156;-68
2023/12/03 04:19:48;;;;;;;35.70;15.15;;;;;;;;;;5026980;28;20065;-69
2023/12/03 04:22:14;;;;;;;35.10;15.10;;;;;;;;;;5027168;28;20049;-68
2023/12/03 04:24:41;;;;;;;34.40;15.45;;;;;;;;;;5026791;28;20664;-67
2023/12/03 04:27:07;;;;;;;38.78;16.13;;;;;;;;;;5027553;28;20137;-68
2023/12/03 04:29:33;;;;;;;37.55;15.98;;;;;;;;;;5030647;28;20114;-70
2023/12/03 04:32:00;;;;;;;40.92;17.58;;;;;;;;;;5032710;28;20046;-68
2023/12/03 04:34:26;;;;;;;35.15;15.10;;;;;;;;;;5028603;28;20053;-68
2023/12/03 04:36:53;;;;;;;35.25;14.07;;;;;;;;;;5018349;28;20056;-67
2023/12/03 04:39:19;;;;;;;33.92;14.70;;;;;;;;;;5015615;28;20055;-68
2023/12/03 04:41:46;;;;;;;36.67;16.92;;;;;;;;;;5026860;28;20045;-68
2023/12/03 04:44:12;;;;;;;31.83;14.65;;;;;;;;;;5026229;28;20099;-68
2023/12/03 04:46:40;;;;;;;36.22;15.15;;;;;;;;;;5009735;28;20045;-67
2023/12/03 04:49:06;;;;;;;28.02;13.95;;;;;;;;;;5018295;28;20061;-68
2023/12/03 04:51:33;;;;;;;33.55;15.40;;;;;;;;;;5026852;28;20438;-68
2023/12/03 04:54:00;;;;;;;30.05;15.15;;;;;;;;;;5029080;28;20045;-68
2023/12/03 04:56:26;;;;;;;30.67;13.15;;;;;;;;;;5028263;28;20049;-69
2023/12/03 04:58:52;;;;;;;32.72;14.90;;;;;;;;;;5027685;28;20137;-68
2023/12/03 05:01:19;;;;;;;35.08;14.93;;;;;;;;;;5018930;28;20131;-67
2023/12/03 05:03:46;;;;;;;32.15;15.30;;;;;;;;;;5027171;28;20674;-67
2023/12/03 05:06:13;;;;;;;39.22;17.40;;;;;;;;;;5025949;28;20148;-67
2023/12/03 05:08:39;;;;;;;41.95;15.73;;;;;;;;;;5023830;28;20133;-67
2023/12/03 05:11:06;;;;;;;31.77;14.77;;;;;;;;;;5021152;28;20057;-67
2023/12/03 05:13:33;;;;;;;38.72;16.25;;;;;;;;;;5026969;28;20572;-68
2023/12/03 05:16:04;;;;;;;36.08;16.35;;;;;;;;;;5026647;28;20103;-67
2023/12/03 05:18:31;;;;;;;35.67;15.10;;;;;;;;;;5028024;28;20055;-68
2023/12/03 05:20:57;;;;;;;41.28;15.82;;;;;;;;;;5030240;28;20656;-67
2023/12/03 05:23:24;;;;;;;37.40;15.85;;;;;;;;;;5027076;28;20049;-67
2023/12/03 05:25:51;;;;;;;34.00;14.15;;;;;;;;;;5025971;28;20053;-68
2023/12/03 05:28:17;;;;;;;34.20;14.43;;;;;;;;;;5026544;28;20053;-67
2023/12/03 05:30:44;;;;;;;36.88;14.75;;;;;;;;;;5027131;28;20111;-67
2023/12/03 05:33:11;;;;;;;35.50;15.63;;;;;;;;;;5026553;28;20506;-67
2023/12/03 05:35:38;;;;;;;41.20;15.77;;;;;;;;;;5029691;28;20041;-68
2023/12/03 05:38:04;;;;;;;30.20;14.63;;;;;;;;;;5029989;28;20678;-68
2023/12/03 05:40:30;;;;;;;33.70;13.70;;;;;;;;;;5027904;28;20625;-68
2023/12/03 05:42:57;;;;;;;33.10;15.55;;;;;;;;;;5027991;28;20099;-68
2023/12/03 05:45:23;;;;;;;33.42;14.10;;;;;;;;;;5028811;28;20042;-67
2023/12/03 05:47:50;;;;;;;32.13;14.48;;;;;;;;;;5026574;28;20064;-67
2023/12/03 05:50:16;;;;;;;36.25;16.48;;;;;;;;;;5026293;28;20052;-67
2023/12/03 05:52:43;;;;;;;32.85;14.52;;;;;;;;;;5026853;28;20534;-67
2023/12/03 05:55:09;;;;;;;29.63;13.65;;;;;;;;;;5024094;28;20061;-67
2023/12/03 05:57:36;;;;;;;29.73;13.95;;;;;;;;;;5022054;28;20698;-67
2023/12/03 06:00:03;;;;;;;33.80;14.13;;;;;;;;;;5026020;28;20053;-68
2023/12/03 06:02:29;;;;;;;31.92;14.40;;;;;;;;;;5026567;28;20045;-67
2023/12/03 06:04:56;;;;;;;32.92;14.98;;;;;;;;;;5025762;28;20053;-67
2023/12/03 06:07:22;;;;;;;33.28;14.10;;;;;;;;;;5026280;28;20522;-67
2023/12/03 06:09:48;;;;;;;30.17;13.13;;;;;;;;;;5026875;28;20076;-67
2023/12/03 06:12:15;;;;;;;34.28;15.13;;;;;;;;;;5023860;28;20391;-67
2023/12/03 06:14:42;;;;;;;32.53;15.38;;;;;;;;;;5027631;28;20624;-67
2023/12/03 06:17:08;;;;;;;36.60;14.88;;;;;;;;;;5029030;28;20461;-67
2023/12/03 06:19:34;;;;;;;36.47;14.50;;;;;;;;;;5029981;28;20046;-68
2023/12/03 06:22:01;;;;;;;36.95;15.73;;;;;;;;;;5029009;28;20063;-67
2023/12/03 06:24:27;;;;;;;38.15;16.20;;;;;;;;;;5029902;28;20037;-67
2023/12/03 06:26:54;;;;;;;36.45;16.17;;;;;;;;;;5029051;28;20708;-67
2023/12/03 06:29:20;;;;;;;35.45;16.52;;;;;;;;;;5029773;28;20041;-67
2023/12/03 06:31:47;;;;;;;34.67;15.55;;;;;;;;;;5026119;28;20045;-67
2023/12/03 06:34:15;;;;;;;34.50;15.75;;;;;;;;;;5028864;28;20037;-68
2023/12/03 06:36:42;;;;;;;37.05;16.35;;;;;;;;;;5029193;28;20053;-67
2023/12/03 06:39:08;;;;;;;39.13;16.70;;;;;;;;;;5029226;28;20046;-67
2023/12/03 06:41:35;;;;;;;38.28;15.95;;;;;;;;;;5027867;28;20076;-67
2023/12/03 06:44:01;;;;;;;36.63;16.02;;;;;;;;;;5029536;28;20069;-67
2023/12/03 06:46:28;;;;;;;40.78;17.40;;;;;;;;;;5028726;28;20068;-68
2023/12/03 06:48:54;;;;;;;41.45;16.52;;;;;;;;;;5029624;28;20045;-68
2023/12/03 06:51:21;;;;;;;35.42;17.08;;;;;;;;;;5029058;28;20050;-67
2023/12/03 06:53:47;;;;;;;38.63;16.63;;;;;;;;;;5028986;28;20060;-67
2023/12/03 06:56:13;;;;;;;41.20;17.38;;;;;;;;;;5025600;28;20084;-68
2023/12/03 06:58:40;;;;;;;41.55;18.55;;;;;;;;;;5021607;28;20494;-68
2023/12/03 07:01:06;;;;;;;36.38;17.60;;;;;;;;;;5024993;28;20115;-67
2023/12/03 07:03:33;;;;;;;40.35;16.92;;;;;;;;;;5024847;28;20490;-68
2023/12/03 07:06:00;;;;;;;40.72;17.00;;;;;;;;;;5026763;28;20563;-67
2023/12/03 07:08:26;;;;;;;37.70;17.25;;;;;;;;;;5028900;28;20061;-67
2023/12/03 07:10:53;;;;;;;34.67;15.98;;;;;;;;;;5027562;28;20119;-67
2023/12/03 07:13:19;;;;;;;37.30;16.98;;;;;;;;;;5027826;28;20049;-67
2023/12/03 07:15:45;;;;;;;40.90;18.55;;;;;;;;;;5028686;28;20107;-68
2023/12/03 07:18:12;;;;;;;39.72;16.42;;;;;;;;;;5027766;28;20060;-68
2023/12/03 07:20:38;;;;;;;39.75;17.90;;;;;;;;;;5027746;28;20087;-68
2023/12/03 07:23:05;;;;;;;39.85;17.23;;;;;;;;;;5027353;28;20050;-67
2023/12/03 07:25:31;;;;;;;48.33;19.52;;;;;;;;;;5028119;28;20096;-68
2023/12/03 07:27:58;;;;;;;40.80;19.15;;;;;;;;;;5028390;28;20188;-68
2023/12/03 07:30:25;;;;;;;35.53;15.65;;;;;;;;;;5027700;28;20072;-68
2023/12/03 07:32:52;;;;;;;45.42;18.13;;;;;;;;;;5028845;28;20103;-68
2023/12/03 07:35:18;;;;;;;43.33;17.67;;;;;;;;;;5028230;28;20053;-68
2023/12/03 07:37:45;;;;;;;51.50;18.67;;;;;;;;;;5028666;28;20107;-68
2023/12/03 07:40:11;;;;;;;44.88;19.05;;;;;;;;;;5027429;28;20122;-67
2023/12/03 07:42:38;;;;;;;41.38;17.02;;;;;;;;;;5026726;28;20068;-67
2023/12/03 07:45:04;;;;;;;47.50;18.30;;;;;;;;;;5024870;28;20129;-67
2023/12/03 07:47:31;;;;;;;43.70;18.63;;;;;;;;;;5030940;28;20057;-68
2023/12/03 07:49:58;;;;;;;45.80;18.30;;;;;;;;;;5027640;28;20046;-67
2023/12/03 07:52:26;;;;;;;49.17;19.55;;;;;;;;;;5025692;28;20049;-68
2023/12/03 07:54:52;;;;;;;44.15;18.77;;;;;;;;;;5025867;28;20063;-67
2023/12/03 07:57:19;;;;;;;38.17;16.38;;;;;;;;;;5023695;28;20052;-67
2023/12/03 07:59:45;;;;;;;35.45;14.75;;;;;;;;;;5027959;28;20045;-67
2023/12/03 08:02:12;;;;;;;39.20;16.30;;;;;;;;;;5027314;28;20053;-67
2023/12/03 08:04:38;;;;;;;35.20;13.85;;;;;;;;;;5027663;28;20041;-67
2023/12/03 08:07:04;;;;;;;31.60;13.95;;;;;;;;;;5027105;28;20379;-67
2023/12/03 08:09:31;;;;;;;31.30;13.98;;;;;;;;;;5027730;28;20042;-68
2023/12/03 08:11:58;;;;;;;30.95;15.02;;;;;;;;;;5029752;28;20061;-67
2023/12/03 08:14:24;;;;;;;35.35;14.15;;;;;;;;;;5026432;28;20045;-68
2023/12/03 08:16:51;;;;;;;28.40;12.98;;;;;;;;;;5027372;28;20049;-68
2023/12/03 08:19:17;;;;;;;28.60;13.27;;;;;;;;;;5027511;28;20545;-68
2023/12/03 08:21:44;;;;;;;32.13;15.10;;;;;;;;;;5027441;28;20121;-68
2023/12/03 08:24:10;;;;;;;30.83;13.07;;;;;;;;;;5027290;28;20045;-67
2023/12/03 08:26:38;;;;;;;32.53;14.32;;;;;;;;;;5027082;28;20053;-67
2023/12/03 08:29:05;;;;;;;33.83;14.93;;;;;;;;;;5027518;28;20098;-68
2023/12/03 08:31:31;;;;;;;32.85;13.60;;;;;;;;;;5014508;28;20041;-67
2023/12/03 08:33:58;;;;;;;35.33;14.73;;;;;;;;;;5029315;28;20053;-72
2023/12/03 08:36:30;;;;;;;31.33;15.50;;;;;;;;;;5028989;28;20076;-68
2023/12/03 08:38:56;;;;;;;29.67;13.95;;;;;;;;;;5027179;28;20115;-67
2023/12/03 08:41:23;;;;;;;35.30;15.23;;;;;;;;;;5026924;28;20061;-68
2023/12/03 08:43:49;;;;;;;36.65;15.25;;;;;;;;;;5026654;28;20037;-68
2023/12/03 08:46:15;;;;;;;32.30;14.98;;;;;;;;;;5026743;28;20433;-68
2023/12/03 08:48:43;;;;;;;36.00;15.43;;;;;;;;;;5026561;28;20041;-67
2023/12/03 08:51:10;;;;;;;36.25;15.00;;;;;;;;;;5024768;28;20052;-68
2023/12/03 08:53:36;;;;;;;33.28;15.27;;;;;;;;;;5027591;28;20033;-68
2023/12/03 08:56:03;;;;;;;35.78;15.38;;;;;;;;;;5026139;28;20494;-68
2023/12/03 08:58:29;;;;;;;31.20;13.63;;;;;;;;;;5028865;28;20045;-70
2023/12/03 09:00:56;;;;;;;34.50;15.75;;;;;;;;;;5028046;28;20054;-68
2023/12/03 09:03:22;;;;;;;31.45;12.88;;;;;;;;;;5027449;28;20133;-68
2023/12/03 09:05:49;;;;;;;36.00;13.73;;;;;;;;;;5026936;28;20147;-68
2023/12/03 09:08:16;;;;;;;38.10;16.25;;;;;;;;;;5027127;28;20134;-68
2023/12/03 09:10:42;;;;;;;33.55;15.23;;;;;;;;;;5020918;28;20045;-67
2023/12/03 09:13:09;;;;;;;37.10;15.48;;;;;;;;;;5013908;28;20100;-68
2023/12/03 09:15:35;;;;;;;34.58;14.40;;;;;;;;;;5024138;28;20099;-68
2023/12/03 09:18:02;;;;;;;36.63;16.13;;;;;;;;;;5026811;28;20077;-68
2023/12/03 09:20:28;;;;;;;31.95;13.32;;;;;;;;;;5027208;28;20124;-67
2023/12/03 09:22:55;;;;;;;32.63;14.30;;;;;;;;;;5026623;28;20053;-68
2023/12/03 09:25:21;;;;;;;42.22;16.45;;;;;;;;;;5027356;28;20065;-68
2023/12/03 09:27:48;;;;;;;42.17;15.18;;;;;;;;;;5027137;28;20577;-68
2023/12/03 09:30:14;;;;;;;34.72;15.02;;;;;;;;;;5027618;28;20045;-68
2023/12/03 09:32:41;;;;;;;38.95;16.58;;;;;;;;;;5026613;28;20512;-67
2023/12/03 09:35:07;;;;;;;40.70;16.40;;;;;;;;;;5011462;28;20127;-68
2023/12/03 09:37:34;;;;;;;38.97;16.10;;;;;;;;;;5021889;28;20498;-68
2023/12/03 09:40:03;;;;;;;38.85;16.67;;;;;;;;;;5026153;28;20053;-68
2023/12/03 09:42:31;;;;;;;40.75;15.10;;;;;;;;;;5025853;28;20049;-68
2023/12/03 09:45:01;;;;;;;40.50;16.23;;;;;;;;;;5029315;28;20056;-71
2023/12/03 09:47:30;;;;;;;36.72;14.90;;;;;;;;;;5025719;28;20336;-68
2023/12/03 09:49:56;;;;;;;35.58;14.68;;;;;;;;;;5032024;28;20532;-68
2023/12/03 09:52:24;;;;;;;33.00;15.35;;;;;;;;;;5031246;28;20114;-68
2023/12/03 09:54:51;;;;;;;38.53;17.00;;;;;;;;;;5028719;28;20103;-68
2023/12/03 09:57:18;;;;;;;31.15;14.45;;;;;;;;;;5013333;28;20049;-68
2023/12/03 09:59:48;;;;;;;39.78;16.38;;;;;;;;;;5022693;28;20046;-68
2023/12/03 10:02:15;;;;;;;34.22;14.55;;;;;;;;;;5030443;28;20532;-68
2023/12/03 10:04:41;;;;;;;36.35;15.05;;;;;;;;;;5029808;28;20061;-68
2023/12/03 10:07:09;;;;;;;32.78;15.57;;;;;;;;;;5029281;28;20064;-68
2023/12/03 10:09:36;;;;;;;39.78;16.33;;;;;;;;;;5028857;28;20065;-67
2023/12/03 10:12:04;;;;;;;37.72;16.30;;;;;;;;;;5029808;28;20103;-68
2023/12/03 10:14:31;;;;;;;31.80;14.80;;;;;;;;;;5028230;28;20329;-68
2023/12/03 10:16:58;;;;;;;36.38;14.73;;;;;;;;;;5029207;28;20269;-68
2023/12/03 10:19:28;;;;;;;45.10;17.85;;;;;;;;;;5029071;28;20128;-68
2023/12/03 10:21:55;;;;;;;37.10;18.30;;;;;;;;;;5029413;28;20065;-68
2023/12/03 10:24:22;;;;;;;29.75;14.68;;;;;;;;;;5029400;28;20111;-68
2023/12/03 10:26:50;;;;;;;34.63;15.35;;;;;;;;;;5029194;28;20045;-68
2023/12/03 10:29:19;;;;;;;37.35;15.77;;;;;;;;;;5029091;28;20064;-68
2023/12/03 10:31:49;;;;;;;34.60;14.27;;;;;;;;;;5029363;28;20044;-68
2023/12/03 10:34:17;;;;;;;34.85;15.52;;;;;;;;;;5029506;28;20088;-68
2023/12/03 10:36:43;;;;;;;30.35;14.18;;;;;;;;;;5029100;28;20042;-68
2023/12/03 10:39:16;;;;;;;33.75;14.60;;;;;;;;;;5029000;28;20096;-68
2023/12/03 10:41:47;;;;;;;35.83;14.07;;;;;;;;;;5029342;28;20046;-68
2023/12/03 10:44:24;;;;;;;32.65;14.55;;;;;;;;;;5028534;28;20037;-68
2023/12/03 10:46:50;;;;;;;31.55;13.52;;;;;;;;;;5026600;28;20049;-68
2023/12/03 10:49:17;;;;;;;30.92;15.13;;;;;;;;;;5028710;28;20049;-68
2023/12/03 10:51:44;;;;;;;35.10;14.50;;;;;;;;;;5026709;28;20045;-68
2023/12/03 10:54:11;;;;;;;32.35;13.38;;;;;;;;;;5028851;28;20133;-68
2023/12/03 10:56:38;;;;;;;35.60;14.85;;;;;;;;;;5025321;28;20042;-68
2023/12/03 10:59:09;;;;;;;27.25;13.20;;;;;;;;;;5030533;28;20103;-72
2023/12/03 11:01:41;;;;;;;31.25;12.93;;;;;;;;;;5030105;28;20107;-68
2023/12/03 11:04:11;;;;;;;35.95;13.85;;;;;;;;;;5028674;28;20059;-68
2023/12/03 11:06:39;;;;;;;31.33;13.75;;;;;;;;;;5028937;28;20056;-68
2023/12/03 11:09:07;;;;;;;30.30;13.57;;;;;;;;;;5028560;28;20481;-68
2023/12/03 11:11:34;;;;;;;27.52;12.98;;;;;;;;;;5028369;28;20738;-68
2023/12/03 11:14:00;;;;;;;31.67;12.50;;;;;;;;;;5028741;28;20111;-68
2023/12/03 11:16:31;;;;;;;36.15;14.80;;;;;;;;;;5028107;28;20079;-68
2023/12/03 11:19:10;;;;;;;28.52;12.27;;;;;;;;;;5026839;28;20153;-68
2023/12/03 11:21:36;;;;;;;34.50;12.90;;;;;;;;;;5028581;28;20049;-68
2023/12/03 11:24:15;;;;;;;29.83;12.85;;;;;;;;;;5029592;28;20049;-69
2023/12/03 11:26:42;;;;;;;64.38;31.77;;;;;;;;;;5021491;28;20044;-68
2023/12/03 11:29:09;;;;;;;32.45;13.85;;;;;;;;;;5028442;28;20056;-68
2023/12/03 11:31:35;;;;;;;29.92;13.27;;;;;;;;;;5028045;28;20606;-69
2023/12/03 11:34:05;;;;;;;33.05;14.98;;;;;;;;;;5028941;28;20076;-68
2023/12/03 11:36:41;;;;;;;33.03;13.90;;;;;;;;;;5028067;28;20045;-68
2023/12/03 11:39:08;;;;;;;25.48;12.43;;;;;;;;;;5028769;28;20080;-68
2023/12/03 11:41:38;;;;;;;33.53;14.10;;;;;;;;;;5026432;28;20068;-68
2023/12/03 11:44:18;;;;;;;34.33;13.93;;;;;;;;;;5028074;28;20136;-68
2023/12/03 11:47:07;;;;;;;30.00;14.15;;;;;;;;;;5022638;28;20051;-70
2023/12/03 11:49:35;;;;;;;30.08;13.18;;;;;;;;;;5026500;28;20041;-68
2023/12/03 11:52:03;;;;;;;27.30;13.57;;;;;;;;;;5028294;28;20041;-68
2023/12/03 11:54:52;;;;;;;30.13;13.88;;;;;;;;;;5027375;28;20042;-68
2023/12/03 11:57:19;;;;;;;26.77;12.60;;;;;;;;;;5026646;28;20508;-68
2023/12/03 11:59:45;;;;;;;30.73;13.02;;;;;;;;;;5027180;28;20045;-69
2023/12/03 12:02:13;;;;;;;31.38;13.88;;;;;;;;;;5027746;28;20465;-68
2023/12/03 12:04:40;;;;;;;29.35;13.43;;;;;;;;;;5027441;28;20042;-68
2023/12/03 12:07:13;;;;;;;34.30;13.88;;;;;;;;;;5027106;28;20122;-68
2023/12/03 12:09:39;;;;;;;27.17;11.90;;;;;;;;;;5027295;28;20142;-68
2023/12/03 12:12:06;;;;;;;36.08;17.73;;;;;;;;;;5028553;28;20076;-69
2023/12/03 12:14:33;;;;;;;44.70;24.13;;;;;;;;;;5025462;28;20522;-69
2023/12/03 12:16:59;;;;;;;29.13;13.65;;;;;;;;;;5019915;28;20136;-69
2023/12/03 12:19:26;;;;;;;25.65;11.85;;;;;;;;;;5026580;28;20744;-69
2023/12/03 12:21:56;;;;;;;31.27;14.52;;;;;;;;;;5027435;28;20068;-68
2023/12/03 12:24:23;;;;;;;27.77;13.10;;;;;;;;;;5026096;28;20045;-68
2023/12/03 12:26:50;;;;;;;29.55;12.45;;;;;;;;;;5023724;28;20128;-69
2023/12/03 12:29:17;;;;;;;26.00;12.35;;;;;;;;;;5026405;28;20060;-69
2023/12/03 12:31:43;;;;;;;30.00;12.50;;;;;;;;;;5027395;28;20049;-69
2023/12/03 12:34:10;;;;;;;28.80;12.38;;;;;;;;;;5026621;28;20114;-69
2023/12/03 12:36:37;;;;;;;25.08;12.20;;;;;;;;;;5027741;28;20474;-70
2023/12/03 12:39:03;;;;;;;24.60;12.13;;;;;;;;;;5027307;28;20041;-68
2023/12/03 12:41:37;;;;;;;26.67;12.13;;;;;;;;;;5026693;28;20048;-68
2023/12/03 12:44:04;;;;;;;24.30;10.82;;;;;;;;;;5017974;28;20057;-68
2023/12/03 12:46:31;;;;;;;22.45;9.88;;;;;;;;;;5026889;28;20735;-68
2023/12/03 12:49:13;;;;;;;25.60;11.57;;;;;;;;;;5026556;28;20045;-68
2023/12/03 12:51:40;;;;;;;22.58;11.30;;;;;;;;;;5020212;28;20041;-68
2023/12/03 12:54:07;;;;;;;22.35;10.88;;;;;;;;;;5026435;28;20056;-68
2023/12/03 12:56:34;;;;;;;25.02;10.98;;;;;;;;;;5026486;28;20104;-68
2023/12/03 12:59:00;;;;;;;30.90;12.93;;;;;;;;;;5026874;28;20140;-68
2023/12/03 13:01:28;;;;;;;23.27;10.55;;;;;;;;;;5024874;28;20042;-68
2023/12/03 13:03:55;;;;;;;26.95;11.80;;;;;;;;;;5027057;28;20042;-68
2023/12/03 13:06:22;;;;;;;26.33;11.27;;;;;;;;;;5026824;28;20075;-68
2023/12/03 13:08:48;;;;;;;23.23;10.88;;;;;;;;;;5027019;28;20489;-69
2023/12/03 13:11:15;;;;;;;22.08;10.85;;;;;;;;;;5016046;28;20058;-69
2023/12/03 13:13:41;;;;;;;27.10;12.60;;;;;;;;;;5022652;28;20042;-69
2023/12/03 13:16:08;;;;;;;26.50;11.52;;;;;;;;;;5023446;28;20127;-69
2023/12/03 13:18:37;;;;;;;22.33;10.52;;;;;;;;;;5028933;28;20056;-69
2023/12/03 13:21:04;;;;;;;23.70;12.02;;;;;;;;;;5029176;28;20482;-68
2023/12/03 13:23:33;;;;;;;26.23;12.45;;;;;;;;;;5030942;28;20080;-68
2023/12/03 13:25:59;;;;;;;24.90;12.05;;;;;;;;;;5030139;28;20127;-68
2023/12/03 13:28:26;;;;;;;24.17;11.65;;;;;;;;;;5030987;28;20064;-69
2023/12/03 13:30:52;;;;;;;23.73;10.75;;;;;;;;;;5030241;28;20065;-68
2023/12/03 13:33:19;;;;;;;20.92;10.00;;;;;;;;;;5030986;28;20073;-69
2023/12/03 13:35:46;;;;;;;22.23;10.77;;;;;;;;;;5030006;28;20056;-68
2023/12/03 13:38:12;;;;;;;25.88;10.60;;;;;;;;;;5030417;28;20450;-68
2023/12/03 13:40:39;;;;;;;23.83;12.98;;;;;;;;;;5030375;28;20053;-68
2023/12/03 13:43:05;;;;;;;24.52;12.05;;;;;;;;;;5030036;28;20048;-68
2023/12/03 13:45:32;;;;;;;24.85;12.70;;;;;;;;;;5030286;28;20614;-69
2023/12/03 13:47:59;;;;;;;21.92;11.05;;;;;;;;;;5029889;28;20740;-69
2023/12/03 13:50:26;;;;;;;20.90;11.75;;;;;;;;;;5030378;28;20041;-68
2023/12/03 13:52:53;;;;;;;23.83;11.40;;;;;;;;;;5029731;28;20064;-69
2023/12/03 13:55:19;;;;;;;25.92;11.52;;;;;;;;;;5026017;28;20057;-69
2023/12/03 13:57:46;;;;;;;23.27;10.45;;;;;;;;;;5025700;28;20494;-69
2023/12/03 14:00:13;;;;;;;23.15;10.70;;;;;;;;;;5030246;28;20057;-68
2023/12/03 14:02:40;;;;;;;22.90;11.35;;;;;;;;;;5029613;28;20053;-68
2023/12/03 14:05:08;;;;;;;24.30;13.60;;;;;;;;;;5029648;28;20183;-68
2023/12/03 14:07:49;;;;;;;24.60;11.73;;;;;;;;;;5026847;28;20049;-68
2023/12/03 14:10:16;;;;;;;22.33;10.55;;;;;;;;;;5029373;28;20042;-69
2023/12/03 14:12:42;;;;;;;24.27;9.90;;;;;;;;;;5030945;28;20061;-69
2023/12/03 14:15:10;;;;;;;20.88;10.80;;;;;;;;;;5028771;28;20133;-68